Time;durP1;ratioP1;P1;durP2;ratioP2;P2;SDS_P1;SDS_P2;PMS_P1;PMS_P2;Temp;Humidity;BMP_temperature;BMP_pressure;BME280_temperature;BME280_humidity;BME280_pressure;Samples;Min_cycle;Max_cycle;Signal;HPM_P1;HPM_P2
2022/05/03 00:01:43;;;;;;;5.10;3.95;;;9.00;99.90;;;;;;7383303;19;20352;-73
2022/05/03 00:04:48;;;;;;;3.80;3.40;;;8.90;99.90;;;;;;7277742;19;2004993;-74
2022/05/03 00:07:34;;;;;;;4.97;3.53;;;8.90;99.90;;;;;;7285128;19;2004407;-73
2022/05/03 00:10:14;;;;;;;5.70;3.50;;;8.90;99.90;;;;;;7384555;19;20396;-73
2022/05/03 00:12:48;;;;;;;6.65;3.55;;;8.80;99.90;;;;;;7381816;19;20375;-73
2022/05/03 00:15:15;;;;;;;5.20;3.57;;;8.80;99.90;;;;;;7381015;19;20329;-73
2022/05/03 00:17:44;;;;;;;4.28;3.83;;;8.80;99.90;;;;;;7382834;19;21354;-73
2022/05/03 00:20:10;;;;;;;3.37;3.07;;;8.80;99.90;;;;;;7381573;19;21117;-73
2022/05/03 00:22:36;;;;;;;4.80;4.30;;;8.70;99.90;;;;;;7382813;19;20341;-73
2022/05/03 00:25:02;;;;;;;4.30;3.77;;;8.70;99.90;;;;;;7382067;19;20331;-73
2022/05/03 00:27:28;;;;;;;3.67;3.38;;;8.60;99.90;;;;;;7386953;19;20323;-73
2022/05/03 00:29:54;;;;;;;4.65;3.42;;;8.60;99.90;;;;;;7382944;19;20312;-73
2022/05/03 00:32:21;;;;;;;4.05;3.65;;;8.60;99.90;;;;;;7380303;19;20366;-73
2022/05/03 00:34:47;;;;;;;3.90;3.50;;;8.60;99.90;;;;;;7383779;19;20344;-73
2022/05/03 00:37:13;;;;;;;3.70;3.30;;;8.70;99.90;;;;;;7382964;19;20351;-73
2022/05/03 00:39:38;;;;;;;3.60;3.30;;;8.70;99.90;;;;;;7384939;19;20329;-73
2022/05/03 00:42:17;;;;;;;3.90;3.53;;;8.60;99.90;;;;;;7378813;19;20353;-73
2022/05/03 00:45:00;;;;;;;5.70;3.60;;;8.50;99.90;;;;;;7382937;19;20344;-73
2022/05/03 00:48:03;;;;;;;4.28;3.88;;;8.40;99.90;;;;;;7384794;19;20848;-73
2022/05/03 00:50:34;;;;;;;4.32;3.92;;;8.30;99.90;;;;;;7282805;19;2004117;-76
2022/05/03 00:53:06;;;;;;;4.90;4.15;;;8.20;99.90;;;;;;7381645;19;20807;-73
2022/05/03 00:56:17;;;;;;;4.90;4.18;;;8.10;99.90;;;;;;7382153;19;20368;-73
2022/05/03 00:58:56;;;;;;;4.22;3.83;;;8.10;99.90;;;;;;7279268;19;2004364;-74
2022/05/03 01:01:49;;;;;;;4.38;4.00;;;8.00;99.90;;;;;;7380530;19;20374;-73
2022/05/03 01:04:29;;;;;;;3.53;3.03;;;8.00;99.90;;;;;;7380789;19;20700;-73
2022/05/03 01:07:13;;;;;;;3.50;3.20;;;8.00;99.90;;;;;;7279292;19;2004419;-73
2022/05/03 01:09:57;;;;;;;3.50;3.20;;;8.00;99.90;;;;;;7280310;19;2004355;-73
2022/05/03 01:12:36;;;;;;;3.58;3.28;;;8.00;99.90;;;;;;7381207;19;20375;-73
2022/05/03 01:15:22;;;;;;;5.07;3.80;;;8.10;99.90;;;;;;7378704;19;20344;-73
2022/05/03 01:18:14;;;;;;;3.83;3.50;;;8.10;99.90;;;;;;7382854;19;21225;-73
2022/05/03 01:20:49;;;;;;;3.92;3.53;;;8.00;99.90;;;;;;7280100;19;2004439;-74
2022/05/03 01:23:42;;;;;;;3.72;3.42;;;7.90;99.90;;;;;;7380363;19;20333;-73
2022/05/03 01:26:59;;;;;;;4.15;3.75;;;7.80;99.90;;;;;;7278536;19;2004389;-74
2022/05/03 01:29:35;;;;;;;4.35;3.97;;;7.70;99.90;;;;;;7176320;19;2004541;-73
2022/05/03 01:32:02;;;;;;;3.70;3.30;;;7.70;99.90;;;;;;7376706;19;20586;-73
2022/05/03 01:34:28;;;;;;;3.50;3.20;;;7.60;99.90;;;;;;7377555;19;20351;-73
2022/05/03 01:36:59;;;;;;;3.65;3.35;;;7.60;99.90;;;;;;7372857;19;20329;-72
2022/05/03 01:39:35;;;;;;;4.00;3.70;;;7.60;99.90;;;;;;7282098;19;2017866;-73
2022/05/03 01:42:08;;;;;;;4.00;3.70;;;7.50;99.90;;;;;;7377417;19;20365;-73
2022/05/03 01:44:40;;;;;;;4.60;3.97;;;7.50;99.90;;;;;;7381368;19;20359;-73
2022/05/03 01:47:35;;;;;;;4.03;3.65;;;7.50;99.90;;;;;;7381300;19;20374;-74
2022/05/03 01:50:20;;;;;;;4.72;4.32;;;7.40;99.90;;;;;;7275415;19;2004370;-73
2022/05/03 01:53:16;;;;;;;4.05;3.65;;;7.30;99.90;;;;;;7276066;19;2004291;-73
2022/05/03 01:56:00;;;;;;;5.10;3.80;;;7.20;99.90;;;;;;7384005;19;20848;-74
2022/05/03 01:58:26;;;;;;;4.55;3.97;;;7.10;99.90;;;;;;7281549;19;2004384;-73
2022/05/03 02:01:24;;;;;;;4.70;3.50;;;7.10;99.90;;;;;;7377394;19;20329;-73
2022/05/03 02:03:51;;;;;;;4.32;3.92;;;7.20;99.90;;;;;;7276142;19;2004419;-73
2022/05/03 02:06:22;;;;;;;4.47;4.07;;;7.20;99.90;;;;;;7382377;19;20333;-73
2022/05/03 02:08:50;;;;;;;4.07;3.77;;;7.20;99.90;;;;;;7382932;19;20331;-73
2022/05/03 02:11:40;;;;;;;4.65;3.88;;;7.20;99.90;;;;;;7380946;19;21140;-73
2022/05/03 02:17:00;;;;;;;4.80;4.35;;;7.20;99.90;;;;;;7278764;19;2004315;-73
2022/05/03 02:19:38;;;;;;;5.03;4.63;;;7.20;99.90;;;;;;7380689;19;20332;-74
2022/05/03 02:22:37;;;;;;;4.55;3.80;;;7.10;99.90;;;;;;7272867;19;2004551;-73
2022/05/03 02:25:17;;;;;;;4.30;3.80;;;7.10;99.90;;;;;;7377286;19;20325;-73
2022/05/03 02:27:48;;;;;;;4.10;3.80;;;7.10;99.90;;;;;;7279091;19;2004593;-74
2022/05/03 02:30:14;;;;;;;5.05;4.53;;;7.10;99.90;;;;;;7376678;19;20970;-73
2022/05/03 02:32:52;;;;;;;4.30;3.90;;;7.10;99.90;;;;;;7379393;19;20347;-74
2022/05/03 02:35:21;;;;;;;4.50;4.10;;;7.10;99.90;;;;;;7380454;19;20321;-73
2022/05/03 02:37:53;;;;;;;5.97;4.10;;;7.10;99.90;;;;;;7384136;19;20345;-74
2022/05/03 02:40:20;;;;;;;3.70;3.40;;;7.10;99.90;;;;;;7276984;19;2017166;-73
2022/05/03 02:42:45;;;;;;;4.38;3.97;;;7.10;99.90;;;;;;7380216;19;20345;-73
2022/05/03 02:45:12;;;;;;;5.10;4.45;;;7.10;99.90;;;;;;7377576;19;20344;-74
2022/05/03 02:47:49;;;;;;;4.40;4.00;;;7.10;99.90;;;;;;7381021;19;20316;-73
2022/05/03 02:50:20;;;;;;;4.85;3.92;;;7.00;99.90;;;;;;7379329;19;20308;-72
2022/05/03 02:53:05;;;;;;;4.03;3.65;;;7.00;99.90;;;;;;7377139;19;21136;-72
2022/05/03 02:55:50;;;;;;;3.90;3.60;;;7.10;99.90;;;;;;7382399;19;20360;-74
2022/05/03 02:58:38;;;;;;;3.83;3.53;;;7.10;99.90;;;;;;7279581;19;2004438;-73
2022/05/03 03:04:15;;;;;;;4.32;3.92;;;7.30;99.90;;;;;;7276976;19;2004632;-74
2022/05/03 03:06:42;;;;;;;4.20;3.80;;;7.20;99.90;;;;;;7376753;19;20740;-73
2022/05/03 03:09:08;;;;;;;4.00;3.70;;;7.20;99.90;;;;;;7379534;19;20384;-72
2022/05/03 03:11:38;;;;;;;4.77;4.27;;;7.20;99.90;;;;;;7374899;19;20356;-74
2022/05/03 03:14:14;;;;;;;4.95;4.55;;;7.20;99.90;;;;;;7375111;19;20873;-73
2022/05/03 03:16:43;;;;;;;4.57;3.67;;;7.10;99.90;;;;;;7380156;19;20328;-74
2022/05/03 03:19:17;;;;;;;5.40;3.90;;;7.10;99.90;;;;;;7378158;19;20336;-73
2022/05/03 03:21:43;;;;;;;4.70;4.25;;;7.10;99.90;;;;;;7376161;19;20376;-73
2022/05/03 03:24:08;;;;;;;3.97;3.67;;;7.00;99.90;;;;;;7374895;19;20337;-73
2022/05/03 03:26:34;;;;;;;5.50;4.20;;;7.00;99.90;;;;;;7377539;19;20959;-73
2022/05/03 03:29:00;;;;;;;4.03;3.70;;;7.00;99.90;;;;;;7363973;19;21189;-73
2022/05/03 03:31:26;;;;;;;4.70;4.30;;;7.00;99.90;;;;;;7376623;19;20416;-73
2022/05/03 03:33:53;;;;;;;4.90;4.17;;;7.00;99.90;;;;;;7375110;19;20328;-73
2022/05/03 03:36:19;;;;;;;4.53;4.13;;;7.00;99.90;;;;;;7375938;19;20373;-73
2022/05/03 03:38:47;;;;;;;5.13;3.97;;;7.10;99.90;;;;;;7377792;19;20305;-74
2022/05/03 03:41:12;;;;;;;4.00;3.70;;;7.00;99.90;;;;;;7372015;19;20343;-73
2022/05/03 03:43:38;;;;;;;4.30;3.90;;;7.10;99.90;;;;;;7372686;19;20344;-73
2022/05/03 03:46:03;;;;;;;4.80;4.33;;;7.00;99.90;;;;;;7370921;19;20312;-76
2022/05/03 03:48:29;;;;;;;5.00;4.50;;;7.00;99.90;;;;;;7377157;19;20328;-73
2022/05/03 03:50:55;;;;;;;4.53;3.67;;;7.00;99.90;;;;;;7375859;19;20321;-74
2022/05/03 03:53:21;;;;;;;4.70;4.27;;;7.00;99.90;;;;;;7375083;19;20358;-73
2022/05/03 03:55:48;;;;;;;5.57;4.38;;;7.00;99.90;;;;;;7377402;19;20352;-73
2022/05/03 03:58:14;;;;;;;4.28;3.95;;;7.00;99.90;;;;;;7381714;19;20433;-73
2022/05/03 04:00:40;;;;;;;5.15;4.40;;;7.00;99.90;;;;;;7383174;19;20764;-73
2022/05/03 04:03:05;;;;;;;5.78;5.00;;;7.00;99.90;;;;;;7384816;19;20352;-74
2022/05/03 04:05:31;;;;;;;8.43;6.93;;;7.00;99.90;;;;;;7378533;19;20353;-73
2022/05/03 04:07:56;;;;;;;13.07;9.68;;;7.00;99.90;;;;;;7386465;19;20336;-74
2022/05/03 04:10:22;;;;;;;11.77;9.10;;;7.00;99.90;;;;;;7383590;19;20366;-74
2022/05/03 04:12:48;;;;;;;11.07;8.18;;;7.00;99.90;;;;;;7377420;19;20396;-73
2022/05/03 04:15:13;;;;;;;8.00;6.37;;;7.00;99.90;;;;;;7358563;19;20321;-72
2022/05/03 04:17:39;;;;;;;5.68;5.15;;;7.10;99.90;;;;;;7385279;19;20400;-73
2022/05/03 04:20:05;;;;;;;6.37;4.70;;;7.00;99.90;;;;;;7382851;19;22432;-74
2022/05/03 04:22:32;;;;;;;5.18;4.68;;;7.00;99.90;;;;;;7385240;19;20409;-73
2022/05/03 04:24:58;;;;;;;4.75;4.30;;;6.90;99.90;;;;;;7383211;19;20334;-71
2022/05/03 04:27:23;;;;;;;4.50;4.10;;;7.00;99.90;;;;;;7387956;19;20416;-72
2022/05/03 04:29:49;;;;;;;4.63;3.93;;;7.10;99.90;;;;;;7384309;19;20328;-72
2022/05/03 04:32:14;;;;;;;4.50;4.13;;;7.30;99.90;;;;;;7384318;19;20341;-72
2022/05/03 04:34:40;;;;;;;4.93;4.30;;;7.10;99.90;;;;;;7381863;19;20990;-73
2022/05/03 04:37:06;;;;;;;5.25;4.55;;;7.10;99.90;;;;;;7381426;19;20361;-73
2022/05/03 04:39:31;;;;;;;5.53;4.83;;;7.00;99.90;;;;;;7385790;19;20775;-73
2022/05/03 04:41:57;;;;;;;5.70;4.85;;;7.00;99.90;;;;;;7385756;19;20368;-73
2022/05/03 04:44:22;;;;;;;10.20;5.83;;;7.00;99.90;;;;;;7379142;19;20340;-74
2022/05/03 04:46:48;;;;;;;6.38;5.45;;;7.10;99.90;;;;;;7376763;19;20312;-75
2022/05/03 04:49:14;;;;;;;6.40;5.80;;;7.10;99.90;;;;;;7377854;19;20412;-74
2022/05/03 04:51:39;;;;;;;7.28;6.30;;;7.20;99.90;;;;;;7381580;19;20828;-74
2022/05/03 04:54:05;;;;;;;6.80;6.10;;;7.20;99.90;;;;;;7379659;19;20419;-77
2022/05/03 04:56:30;;;;;;;6.57;5.88;;;7.30;99.90;;;;;;7377114;19;20349;-73
2022/05/03 04:58:56;;;;;;;9.77;6.93;;;7.30;99.90;;;;;;7380059;19;20313;-77
2022/05/03 05:01:22;;;;;;;6.15;5.55;;;7.30;99.90;;;;;;7380373;19;20337;-74
2022/05/03 05:03:48;;;;;;;9.75;6.50;;;7.40;99.90;;;;;;7375503;19;20364;-74
2022/05/03 05:06:13;;;;;;;6.10;5.13;;;7.50;99.90;;;;;;7374259;19;20377;-74
2022/05/03 05:08:40;;;;;;;6.88;5.88;;;7.60;99.90;;;;;;7373795;19;20348;-75
2022/05/03 05:11:05;;;;;;;6.45;5.85;;;7.70;99.90;;;;;;7366233;19;20336;-74
2022/05/03 05:13:34;;;;;;;6.80;5.30;;;7.90;99.90;;;;;;7377259;19;20353;-77
2022/05/03 05:16:00;;;;;;;6.90;5.45;;;8.00;99.90;;;;;;7369996;19;20794;-74
2022/05/03 05:18:26;;;;;;;7.03;6.05;;;8.10;99.90;;;;;;7379013;19;20442;-74
2022/05/03 05:20:52;;;;;;;7.93;5.85;;;8.20;99.90;;;;;;7376331;19;20361;-74
2022/05/03 05:23:18;;;;;;;6.53;5.93;;;8.30;99.90;;;;;;7380985;19;20329;-74
2022/05/03 05:25:43;;;;;;;9.07;5.60;;;8.40;99.90;;;;;;7382069;19;20710;-74
2022/05/03 05:28:09;;;;;;;5.70;5.10;;;8.60;99.90;;;;;;7383249;19;20344;-74
2022/05/03 05:30:34;;;;;;;6.53;5.90;;;8.70;99.90;;;;;;7376304;19;20332;-75
2022/05/03 05:33:00;;;;;;;7.35;5.65;;;8.80;99.90;;;;;;7381569;19;20321;-74
2022/05/03 05:35:26;;;;;;;6.07;5.47;;;8.90;99.90;;;;;;7379955;19;20360;-74
2022/05/03 05:37:51;;;;;;;6.93;4.85;;;9.10;99.90;;;;;;7378052;19;20321;-74
2022/05/03 05:40:17;;;;;;;5.30;4.60;;;9.20;99.90;;;;;;7377726;19;20313;-74
2022/05/03 05:42:42;;;;;;;8.98;5.88;;;9.40;99.90;;;;;;7379663;19;20372;-75
2022/05/03 05:45:08;;;;;;;5.63;4.90;;;9.50;99.90;;;;;;7379512;19;20300;-74
2022/05/03 05:47:34;;;;;;;8.43;5.60;;;9.70;99.90;;;;;;7377260;19;20353;-74
2022/05/03 05:49:59;;;;;;;5.57;4.97;;;9.90;99.90;;;;;;7375395;19;20316;-74
2022/05/03 05:55:09;;;;;;;6.65;5.60;;;10.30;99.90;;;;;;7276229;19;2005209;-74
2022/05/03 05:57:35;;;;;;;6.40;5.50;;;10.50;99.90;;;;;;7375463;19;20328;-74
2022/05/03 06:00:00;;;;;;;5.30;4.70;;;10.70;99.90;;;;;;7373115;19;20431;-74
2022/05/03 06:02:27;;;;;;;4.53;4.13;;;10.90;99.90;;;;;;7376371;19;20309;-75
2022/05/03 06:04:52;;;;;;;5.80;4.77;;;11.10;99.90;;;;;;7377682;19;20329;-75
2022/05/03 06:07:18;;;;;;;5.53;4.20;;;11.30;99.90;;;;;;7375307;19;20342;-76
2022/05/03 06:09:44;;;;;;;4.33;3.93;;;11.50;99.90;;;;;;7372968;19;25318;-75
2022/05/03 06:12:10;;;;;;;4.50;4.10;;;11.70;99.90;;;;;;7375043;19;20731;-74
2022/05/03 06:14:36;;;;;;;6.05;4.20;;;11.70;99.90;;;;;;7376574;19;20312;-75
2022/05/03 06:17:01;;;;;;;4.60;4.15;;;11.80;99.90;;;;;;7374659;19;20410;-75
2022/05/03 06:19:27;;;;;;;4.13;3.73;;;11.90;99.90;;;;;;7375712;19;20377;-75
2022/05/03 06:21:53;;;;;;;4.28;3.88;;;12.10;99.90;;;;;;7376689;19;20321;-75
2022/05/03 06:24:18;;;;;;;4.63;4.23;;;12.30;99.90;;;;;;7377004;19;20328;-76
2022/05/03 06:26:45;;;;;;;4.15;3.75;;;12.50;99.90;;;;;;7376150;19;20309;-76
2022/05/03 06:29:10;;;;;;;4.43;3.92;;;12.50;99.90;;;;;;7373894;19;20379;-77
2022/05/03 06:31:36;;;;;;;5.13;3.80;;;12.60;99.90;;;;;;7375205;19;20416;-76
2022/05/03 06:34:03;;;;;;;4.45;4.05;;;12.70;99.90;;;;;;7377226;19;20715;-75
2022/05/03 06:36:28;;;;;;;5.15;4.18;;;12.80;99.90;;;;;;7372905;19;20328;-75
2022/05/03 06:38:54;;;;;;;4.85;4.32;;;13.10;99.90;;;;;;7373246;19;20412;-75
2022/05/03 06:41:19;;;;;;;5.83;3.83;;;13.20;99.90;;;;;;7375342;19;20444;-76
2022/05/03 06:43:45;;;;;;;3.95;3.40;;;13.40;99.90;;;;;;7373495;19;20332;-76
2022/05/03 06:46:11;;;;;;;4.27;3.90;;;13.50;99.90;;;;;;7371484;19;20439;-76
2022/05/03 06:48:37;;;;;;;4.50;4.05;;;13.70;99.90;;;;;;7373573;19;20332;-75
2022/05/03 06:51:03;;;;;;;4.17;3.80;;;13.80;99.90;;;;;;7372678;19;20320;-76
2022/05/03 06:53:29;;;;;;;4.30;3.90;;;13.80;99.90;;;;;;7373468;19;20341;-76
2022/05/03 06:55:54;;;;;;;5.00;4.03;;;13.90;99.90;;;;;;7371090;19;20345;-77
2022/05/03 06:58:20;;;;;;;4.00;3.30;;;14.10;99.90;;;;;;7372569;19;20344;-76
2022/05/03 07:00:46;;;;;;;3.92;3.50;;;14.40;99.90;;;;;;7373276;19;20400;-75
2022/05/03 07:03:12;;;;;;;3.90;3.57;;;14.70;99.90;;;;;;7376463;19;20321;-76
2022/05/03 07:05:39;;;;;;;6.03;4.00;;;14.90;99.90;;;;;;7373442;19;20320;-75
2022/05/03 07:08:05;;;;;;;4.95;4.45;;;15.00;99.90;;;;;;7379055;19;21107;-75
2022/05/03 07:10:30;;;;;;;3.60;3.30;;;14.90;99.90;;;;;;7372066;19;20332;-75
2022/05/03 07:12:56;;;;;;;4.10;3.70;;;15.10;99.90;;;;;;7373715;19;20324;-76
2022/05/03 07:15:23;;;;;;;4.50;4.10;;;15.30;99.90;;;;;;7373688;19;20350;-75
2022/05/03 07:23:17;;;;;;;5.05;4.18;;;16.00;99.90;;;;;;7374091;19;20359;-75
2022/05/03 07:25:44;;;;;;;6.67;4.40;;;15.90;99.90;;;;;;7370681;19;20678;-76
2022/05/03 07:28:10;;;;;;;5.65;4.55;;;15.80;99.90;;;;;;7373185;19;20353;-76
2022/05/03 07:30:36;;;;;;;4.37;3.97;;;15.60;99.90;;;;;;7369349;19;20320;-75
2022/05/03 07:33:01;;;;;;;7.43;3.90;;;15.80;99.90;;;;;;7380918;19;20675;-75
2022/05/03 07:35:27;;;;;;;6.00;4.27;;;16.00;99.90;;;;;;7380568;19;20312;-77
2022/05/03 07:37:52;;;;;;;5.13;4.63;;;16.40;99.90;;;;;;7376183;19;20328;-75
2022/05/03 07:40:18;;;;;;;5.67;4.60;;;16.50;99.90;;;;;;7377776;19;20721;-75
2022/05/03 07:42:44;;;;;;;6.38;4.57;;;16.50;99.90;;;;;;7380940;19;20332;-76
2022/05/03 07:45:09;;;;;;;4.93;4.23;;;16.70;99.90;;;;;;7381735;19;20352;-75
2022/05/03 07:47:35;;;;;;;4.87;4.40;;;17.00;99.90;;;;;;7380146;19;20324;-76
2022/05/03 07:50:01;;;;;;;6.32;4.15;;;17.30;99.90;;;;;;7380737;19;20300;-75
2022/05/03 07:52:27;;;;;;;5.50;3.80;;;17.40;99.90;;;;;;7379913;19;20361;-75
2022/05/03 07:54:53;;;;;;;5.93;3.97;;;17.30;99.90;;;;;;7379517;19;20297;-75
2022/05/03 07:57:18;;;;;;;7.28;3.97;;;17.20;99.90;;;;;;7381171;19;20764;-76
2022/05/03 07:59:44;;;;;;;5.00;4.10;;;17.60;99.90;;;;;;7379401;19;20385;-76
2022/05/03 08:02:10;;;;;;;4.25;3.60;;;17.60;99.90;;;;;;7380025;19;20869;-76
2022/05/03 08:04:36;;;;;;;7.30;3.90;;;17.80;99.90;;;;;;7383013;19;20681;-75
2022/05/03 08:07:02;;;;;;;6.00;4.40;;;18.00;99.90;;;;;;7378757;19;20396;-75
2022/05/03 08:09:28;;;;;;;4.68;3.80;;;18.00;99.90;;;;;;7378468;19;20323;-76
2022/05/03 08:11:53;;;;;;;4.17;3.47;;;17.50;99.90;;;;;;7382073;19;20333;-76
2022/05/03 08:14:19;;;;;;;4.50;3.42;;;17.90;99.90;;;;;;7383420;19;21216;-76
2022/05/03 08:16:46;;;;;;;6.03;2.70;;;18.10;99.90;;;;;;7380249;19;20328;-75
2022/05/03 08:19:11;;;;;;;4.25;3.15;;;18.40;99.90;;;;;;7380744;19;20344;-75
2022/05/03 08:21:37;;;;;;;3.55;3.22;;;18.70;99.90;;;;;;7380661;19;20333;-77
2022/05/03 08:24:03;;;;;;;3.77;3.13;;;18.90;99.90;;;;;;7382872;19;20692;-76
2022/05/03 08:26:33;;;;;;;4.65;3.33;;;19.00;99.90;;;;;;7378580;19;20340;-77
2022/05/03 08:28:58;;;;;;;3.73;3.17;;;18.80;99.90;;;;;;7380122;19;20308;-77
2022/05/03 08:31:24;;;;;;;5.22;3.30;;;19.20;99.90;;;;;;7379449;19;20812;-76
2022/05/03 08:33:49;;;;;;;5.97;3.40;;;19.40;99.90;;;;;;7381236;19;20345;-76
2022/05/03 08:36:15;;;;;;;4.10;3.07;;;19.60;99.90;;;;;;7379523;19;20379;-77
2022/05/03 08:42:01;;;;;;;3.00;2.70;;;19.80;97.20;;;;;;7380679;19;20904;-76
2022/05/03 08:44:27;;;;;;;3.88;2.63;;;19.50;96.00;;;;;;7279868;19;2004346;-75
2022/05/03 08:46:56;;;;;;;3.13;2.83;;;19.70;97.30;;;;;;7382972;19;20379;-76
2022/05/03 08:49:45;;;;;;;3.15;2.85;;;19.90;96.30;;;;;;7380154;19;20396;-77
2022/05/03 08:52:10;;;;;;;3.55;2.97;;;19.50;95.60;;;;;;7276248;19;2005207;-76
2022/05/03 08:54:37;;;;;;;3.23;2.93;;;19.60;96.50;;;;;;7380736;19;20447;-75
2022/05/03 08:57:08;;;;;;;3.50;2.80;;;19.90;96.80;;;;;;7378013;19;21075;-75
2022/05/03 08:59:35;;;;;;;3.53;3.20;;;20.10;95.80;;;;;;7377999;19;20341;-77
2022/05/03 09:02:00;;;;;;;3.00;2.80;;;20.00;96.00;;;;;;7379635;19;20398;-76
2022/05/03 09:04:26;;;;;;;3.80;3.10;;;20.30;96.20;;;;;;7381703;19;20329;-76
2022/05/03 09:06:51;;;;;;;3.17;2.87;;;20.80;95.30;;;;;;7381569;19;20323;-76
2022/05/03 09:09:18;;;;;;;2.70;2.50;;;20.80;92.00;;;;;;7379147;19;20517;-76
2022/05/03 09:11:51;;;;;;;4.63;2.97;;;21.00;92.60;;;;;;7380358;19;20335;-77
2022/05/03 09:14:36;;;;;;;3.60;2.88;;;21.00;92.10;;;;;;7380134;19;20854;-76
2022/05/03 09:17:02;;;;;;;3.50;2.80;;;21.30;91.70;;;;;;7378490;19;20313;-76
2022/05/03 09:19:28;;;;;;;3.58;3.22;;;21.80;92.50;;;;;;7379462;19;20333;-77
2022/05/03 09:24:53;;;;;;;4.30;3.30;;;21.60;86.20;;;;;;7276245;19;2004493;-77
2022/05/03 09:27:20;;;;;;;3.25;2.90;;;21.70;89.40;;;;;;7272389;19;2004205;-77
2022/05/03 09:30:06;;;;;;;5.15;3.00;;;21.90;88.30;;;;;;7375765;19;20317;-76
2022/05/03 09:32:42;;;;;;;3.45;3.15;;;21.90;90.00;;;;;;7276725;19;2004387;-76
2022/05/03 09:35:31;;;;;;;3.42;2.85;;;22.20;86.40;;;;;;7276083;19;2004384;-75
2022/05/03 09:37:57;;;;;;;5.60;3.08;;;22.60;85.00;;;;;;7274819;19;2004431;-77
2022/05/03 09:40:22;;;;;;;3.72;3.33;;;22.90;84.90;;;;;;7376701;19;20324;-76
2022/05/03 09:42:54;;;;;;;4.05;3.42;;;22.50;80.10;;;;;;7378283;19;20352;-76
2022/05/03 09:45:24;;;;;;;3.60;3.10;;;22.30;84.20;;;;;;7373286;19;20464;-76
2022/05/03 09:47:51;;;;;;;5.20;3.17;;;22.30;80.40;;;;;;7373584;19;20328;-76
2022/05/03 09:50:31;;;;;;;3.92;3.53;;;21.90;80.40;;;;;;7374044;19;21209;-76
2022/05/03 09:52:58;;;;;;;3.50;3.20;;;20.90;78.70;;;;;;7273044;19;2004400;-75
2022/05/03 09:55:32;;;;;;;4.22;3.20;;;21.80;82.90;;;;;;7372324;19;20383;-75
2022/05/03 09:58:02;;;;;;;3.38;3.03;;;22.40;83.80;;;;;;7376622;19;20337;-76
2022/05/03 10:00:30;;;;;;;7.25;3.53;;;22.10;77.40;;;;;;7351531;19;21256;-76
2022/05/03 10:02:55;;;;;;;4.68;3.42;;;22.00;76.30;;;;;;7374012;19;20305;-75
2022/05/03 10:05:21;;;;;;;3.50;3.20;;;21.40;74.80;;;;;;7374010;19;20869;-75
2022/05/03 10:07:48;;;;;;;4.33;3.27;;;21.00;77.30;;;;;;7373852;19;20336;-75
2022/05/03 10:10:14;;;;;;;3.85;3.10;;;21.30;79.20;;;;;;7373411;19;21227;-75
2022/05/03 10:12:44;;;;;;;4.32;3.40;;;21.00;77.30;;;;;;7376747;19;20872;-75
2022/05/03 10:15:10;;;;;;;4.70;3.50;;;21.80;80.60;;;;;;7375064;19;21164;-76
2022/05/03 10:20:45;;;;;;;4.40;3.27;;;22.90;78.90;;;;;;7273971;19;2004489;-80
2022/05/03 10:23:25;;;;;;;4.10;3.15;;;23.40;74.60;;;;;;7378696;19;20354;-80
2022/05/03 10:25:57;;;;;;;3.65;3.30;;;22.50;68.10;;;;;;7383207;19;20354;-77
2022/05/03 10:28:23;;;;;;;3.92;3.13;;;23.40;74.60;;;;;;7379797;19;20377;-79
2022/05/03 10:31:08;;;;;;;4.10;3.22;;;23.30;69.70;;;;;;7377503;19;20320;-79
2022/05/03 10:33:35;;;;;;;3.40;3.10;;;23.30;73.00;;;;;;7276160;19;2004582;-79
2022/05/03 10:36:01;;;;;;;3.83;3.43;;;24.10;71.10;;;;;;7377194;19;20305;-78
2022/05/03 10:38:40;;;;;;;3.75;3.30;;;24.00;69.20;;;;;;7376104;19;20345;-78
2022/05/03 10:41:05;;;;;;;4.13;3.23;;;23.50;68.50;;;;;;7375241;19;20960;-79
2022/05/03 10:43:33;;;;;;;7.22;3.60;;;23.80;73.00;;;;;;7376691;19;20359;-79
2022/05/03 10:46:08;;;;;;;6.07;3.92;;;24.30;68.30;;;;;;7373975;19;20308;-79
2022/05/03 10:48:36;;;;;;;3.45;2.95;;;23.90;65.70;;;;;;7274190;19;2004397;-78
2022/05/03 10:51:03;;;;;;;4.18;3.78;;;24.10;69.60;;;;;;7376267;19;20373;-79
2022/05/03 10:53:50;;;;;;;4.25;3.67;;;23.00;65.60;;;;;;7376052;19;20333;-81
2022/05/03 10:56:18;;;;;;;5.68;3.97;;;22.90;69.10;;;;;;7375122;19;20429;-78
2022/05/03 10:59:08;;;;;;;4.40;4.00;;;22.60;67.50;;;;;;7375443;19;20325;-78
2022/05/03 11:01:55;;;;;;;3.65;3.35;;;22.10;69.80;;;;;;7372045;19;20361;-80
2022/05/03 11:04:21;;;;;;;4.22;3.42;;;22.10;68.70;;;;;;7275159;19;2004428;-78
2022/05/03 11:06:50;;;;;;;3.85;3.55;;;22.50;70.20;;;;;;7379255;19;20412;-80
2022/05/03 11:09:32;;;;;;;4.00;3.60;;;22.30;69.70;;;;;;7381517;19;20332;-78
2022/05/03 11:11:59;;;;;;;3.88;3.58;;;21.90;70.20;;;;;;7382563;19;20367;-77
2022/05/03 11:14:25;;;;;;;4.95;3.72;;;21.90;70.70;;;;;;7384750;19;20384;-79
2022/05/03 11:17:03;;;;;;;4.27;3.60;;;22.40;71.90;;;;;;7364639;19;20518;-77
2022/05/03 11:19:29;;;;;;;4.20;3.25;;;22.90;69.60;;;;;;7381391;19;20827;-79
2022/05/03 11:21:55;;;;;;;3.85;3.33;;;23.20;71.50;;;;;;7384488;19;20361;-80
2022/05/03 11:24:24;;;;;;;4.00;3.60;;;23.70;72.10;;;;;;7387304;19;20336;-78
2022/05/03 11:26:51;;;;;;;4.30;3.55;;;23.70;66.50;;;;;;7377746;19;20341;-77
2022/05/03 11:29:17;;;;;;;6.82;4.18;;;23.40;64.90;;;;;;7380909;19;20348;-79
2022/05/03 11:31:46;;;;;;;3.58;3.17;;;23.10;66.00;;;;;;7381595;19;20338;-77
2022/05/03 11:34:12;;;;;;;3.90;3.47;;;22.90;68.80;;;;;;7380908;19;20732;-78
2022/05/03 11:36:38;;;;;;;4.07;3.47;;;22.70;67.30;;;;;;7379507;19;20341;-77
2022/05/03 11:39:03;;;;;;;7.93;3.30;;;22.60;68.40;;;;;;7377781;19;21116;-79
2022/05/03 11:41:29;;;;;;;3.60;2.97;;;23.10;73.50;;;;;;7379226;19;21204;-78
2022/05/03 11:43:55;;;;;;;3.75;3.35;;;23.90;73.30;;;;;;7379136;19;20321;-78
2022/05/03 11:46:21;;;;;;;4.90;3.80;;;24.10;66.60;;;;;;7381113;19;20407;-80
2022/05/03 11:48:52;;;;;;;4.22;3.15;;;24.50;69.20;;;;;;7380471;19;20436;-78
2022/05/03 11:56:46;;;;;;;3.13;2.85;;;26.40;61.60;;;;;;7380940;19;20308;-77
2022/05/03 11:59:13;;;;;;;3.23;3.03;;;27.00;63.60;;;;;;7379042;19;20347;-78
2022/05/03 12:01:38;;;;;;;2.85;2.65;;;26.50;65.00;;;;;;7383573;19;21224;-78
2022/05/03 12:04:04;;;;;;;4.50;3.63;;;26.80;65.00;;;;;;7387487;19;20342;-79
2022/05/03 12:06:34;;;;;;;3.33;3.03;;;26.20;62.60;;;;;;7380734;19;20388;-79
2022/05/03 12:09:00;;;;;;;4.30;3.43;;;26.90;62.60;;;;;;7382632;19;20317;-80
2022/05/03 12:11:25;;;;;;;4.60;2.75;;;27.30;61.80;;;;;;7379887;19;20356;-79
2022/05/03 12:13:51;;;;;;;4.72;2.53;;;28.10;62.30;;;;;;7382088;19;20358;-80
2022/05/03 12:16:23;;;;;;;3.57;3.23;;;28.70;60.50;;;;;;7376362;19;20868;-78
2022/05/03 12:18:49;;;;;;;4.07;3.13;;;25.80;54.10;;;;;;7379690;19;20366;-78
2022/05/03 12:21:14;;;;;;;2.60;2.40;;;26.30;56.40;;;;;;7379573;19;21220;-77
2022/05/03 12:23:50;;;;;;;4.27;3.20;;;27.20;59.90;;;;;;7384501;19;20723;-78
2022/05/03 12:26:21;;;;;;;4.10;3.17;;;27.70;57.20;;;;;;7277729;19;2004725;-79
2022/05/03 12:28:58;;;;;;;2.83;2.63;;;27.30;55.60;;;;;;7383841;19;20387;-78
2022/05/03 12:31:36;;;;;;;4.88;3.25;;;26.50;57.50;;;;;;7382166;19;20351;-80
2022/05/03 12:34:07;;;;;;;5.13;2.95;;;24.80;57.70;;;;;;7380457;19;20368;-78
2022/05/03 12:36:44;;;;;;;3.08;2.83;;;24.60;59.40;;;;;;7377549;19;20351;-78
2022/05/03 12:39:09;;;;;;;3.45;2.80;;;24.70;61.00;;;;;;7373853;19;20352;-78
2022/05/03 12:41:35;;;;;;;3.13;2.53;;;25.10;60.20;;;;;;7377811;19;20326;-78
2022/05/03 12:44:01;;;;;;;3.23;2.93;;;25.30;61.50;;;;;;7380430;19;20300;-78
2022/05/03 12:46:28;;;;;;;3.47;2.75;;;25.20;58.60;;;;;;7374520;19;20336;-77
2022/05/03 12:48:54;;;;;;;2.70;2.50;;;25.00;58.30;;;;;;7376387;19;21217;-77
2022/05/03 12:51:19;;;;;;;3.35;3.05;;;24.80;59.30;;;;;;7374155;19;20352;-78
2022/05/03 12:53:47;;;;;;;3.25;2.95;;;24.10;57.00;;;;;;7376323;19;20928;-79
2022/05/03 12:58:58;;;;;;;5.50;2.73;;;23.90;59.50;;;;;;7275018;19;2004285;-77
2022/05/03 13:01:24;;;;;;;6.03;3.05;;;23.50;60.70;;;;;;7375501;19;20359;-77
2022/05/03 13:03:49;;;;;;;4.55;3.25;;;23.40;61.10;;;;;;7373554;19;20350;-77
2022/05/03 13:06:15;;;;;;;6.20;3.42;;;23.20;60.70;;;;;;7374360;19;21242;-78
2022/05/03 13:08:41;;;;;;;4.53;2.93;;;23.60;59.90;;;;;;7378100;19;21201;-78
2022/05/03 13:11:06;;;;;;;3.40;3.10;;;24.00;62.30;;;;;;7369825;19;20372;-78
2022/05/03 13:13:32;;;;;;;3.40;3.10;;;25.30;63.90;;;;;;7375056;19;20364;-77
2022/05/03 13:15:57;;;;;;;3.17;2.90;;;26.10;57.60;;;;;;7375588;19;20333;-77
2022/05/03 13:18:24;;;;;;;3.83;3.43;;;26.10;58.30;;;;;;7377688;19;20345;-77
2022/05/03 13:20:50;;;;;;;3.67;3.38;;;25.90;55.90;;;;;;7376900;19;21344;-78
2022/05/03 13:23:15;;;;;;;3.70;3.40;;;25.30;56.70;;;;;;7373937;19;20348;-78
2022/05/03 13:25:41;;;;;;;4.50;3.70;;;24.30;56.90;;;;;;7374162;19;20329;-78
2022/05/03 13:28:06;;;;;;;7.97;4.17;;;24.30;57.00;;;;;;7377480;19;20694;-79
2022/05/03 13:30:33;;;;;;;5.60;3.23;;;25.00;58.00;;;;;;7372393;19;20324;-77
2022/05/03 13:32:59;;;;;;;3.78;3.38;;;25.40;57.80;;;;;;7374348;19;20356;-77